Wilmington International Airport Wilmington US
ICAO: KILM
IATA: ILM
Category: Medium
Scheduled Services: Yes

Elevation: 32 ft
TransAlt. 18000 ft.

Airport Communications:
APP/DEP:118.25
ATIS:121.1
CTAF:119.9
GND/CLNC DEL:121.9
RALEIGH RDO:122.55
TWR:119.9
UNICOM:122.95

KILM Zoom In..

If you have problems with the map follow the link
https://www.worldairports.se/pages/airport.php?
ICAO=KILM

Runways:

(A) RW 06 length 8016 ft width 150 ft
ILS 109.95 / hdg 55

(B) RW 17 length 7004 ft width 150 ft
---- / hdg 166

(C) RW 24 length 8016 ft width 150 ft
ILS 111.55 / hdg 235

(D) RW 35 length 7004 ft width 150 ft
ILS 110.30 / hdg 346

Location; KILM
Day. 21 / Time. 05.53 Zulu
* Altimeter: 30.34
* Temperature: -02° c. -28.4°f.
* Wind from: 020° Speed 06 kn.
Dewpoint: -08° c.
Visibility: 10 Statute Miles.
Clouds: Clear (automated report).

KILM 210553Z AUTO 02006KT 10SM CLR M02/M08 A3034 RMK AO2 SLP275 T10221083 10011 21033 58010 TSNO $


Wind From 020°
Speed 06 kn.

 
 
jpsmedia worldairports.se 2020   terms of use